• Join FlightAware (Why Join?)
  • Login
  • US Flag 
11:09PM EDT


 

Airport Tracker/Info


-or-


 

Live Flight TrackerFlight Track Log ✈ AVN11 ✈ 07-Jan-2014 ✈ YSSY / SYD - NVVV / VLI

Flight Track Log - Related Links

Times and Time Zones

All times are in EST time to prevent confusion due to time zone crossing. See the AVN11 flight status page for this flight to view local times or setup timezone preferences in your user account.

Time Position Orientation Groundspeed Altitude Reporting Facility
EST Latitude Longitude Course Direction KTS MPH feet Rate Location/Type
05:32AM -33.9472 151.1762 156° South 110 127  Level FlightAware ADS-B (YRAY)
05:33AM -33.9645 151.1806 168° South 149 171 200 1,020 Climbing FlightAware ADS-B (YRPA)
05:33AM -33.9742 151.1816 175° South 149 171 700 1,500 Climbing FlightAware ADS-B (YRAY)
05:33AM -33.9914 151.1796 186° South 183 211 1,100 1,260 Climbing FlightAware ADS-B
05:33AM -34.0063 151.1777 186° South 196 226 1,700 1,860 Climbing FlightAware ADS-B
05:34AM -34.0301 151.1770 181° South 198 228 2,500 2,520 Climbing FlightAware ADS-B
05:34AM -34.0374 151.1786 170° South 201 231 2,800 2,280 Climbing FlightAware ADS-B (YRAY)
05:34AM -34.0500 151.1843 159° South 204 235 3,300 1,560 Climbing FlightAware ADS-B (YRPA)
05:34AM -34.0666 151.1989 144° Southeast 231 266 3,700 1,020 Climbing FlightAware ADS-B (YRPA)
05:35AM -34.0795 151.2111 142° Southeast 259 298 3,900 1,020 Climbing FlightAware ADS-B (YSSY / SYD)
05:35AM -34.0883 151.2193 142° Southeast 201 231 4,100 1,800 Climbing FlightAware ADS-B
05:35AM -34.0920 151.2227 142° Southeast 288 331 4,500 3,060 Climbing FlightAware ADS-B (YSSY / SYD)
05:35AM -34.1271 151.2563 142° Southeast 292 336 6,000 3,420 Climbing FlightAware ADS-B (YRPA)
05:36AM -34.1485 151.2776 141° Southeast 304 350 7,100 3,300 Climbing FlightAware ADS-B (YRPA)
05:36AM -34.1629 151.3071 121° Southeast 315 362 8,200 3,300 Climbing FlightAware ADS-B (YRPA)
05:36AM -34.1639 151.3185 96° East 321 369 8,600 2,520 Climbing FlightAware ADS-B (YSSY / SYD)
05:37AM -34.1603 151.3439 80° East 336 387 9,100 2,760 Climbing FlightAware ADS-B (YRPA)
05:37AM -34.1481 151.3743 64° Northeast 340 391 10,100 2,460 Climbing FlightAware ADS-B
05:37AM -34.1340 151.4133 67° East 361 415 10,700 2,040 Climbing FlightAware ADS-B (YRPA)
05:38AM -34.1200 151.4553 68° East 378 435 11,600 2,820 Climbing FlightAware ADS-B (YRAY)
05:38AM -34.1081 151.4911 68° East 374 430 12,600 3,000 Climbing FlightAware ADS-B (YRPA)
05:38AM -34.0824 151.5659 67° East 388 447 14,400 3,000 Climbing FlightAware ADS-B (YSSY / SYD)
05:39AM -34.0669 151.6106 67° East 393 452 15,300 3,060 Climbing FlightAware ADS-B (YPLB)
05:39AM -34.0519 151.6537 67° East 399 459 16,200 2,160 Climbing FlightAware ADS-B (YPLB)
05:40AM -34.0288 151.7208 67° East 410 472 17,500 2,280 Climbing FlightAware ADS-B (YSSY / SYD)
05:40AM -34.0089 151.7784 67° East 419 482 18,500 2,220 Climbing FlightAware ADS-B (YPLB)
05:41AM -33.9894 151.8343 67° East 424 488 19,500 2,040 Climbing FlightAware ADS-B (YSSY / SYD)
05:41AM -33.9669 151.8987 67° East 430 495 20,700 2,580 Climbing FlightAware ADS-B
05:41AM -33.9468 151.9566 67° East 434 499 21,600 2,580 Climbing FlightAware ADS-B (YPLB)
05:42AM -33.9304 152.0003 66° East 441 507 22,300 2,040 Climbing FlightAware ADS-B (YPLB)
05:42AM -33.9406 151.9743 245° Southwest 446 513 22,700 1,800 Climbing FlightAware ADS-B
05:42AM -33.8884 152.0721 245° Southwest 429 494 23,600 1,440 Climbing Aus ATC (RADAR)
05:43AM -33.8773 152.0847 245° Southwest 453 521 23,600 1,380 Level FlightAware ADS-B (YRPA)
05:43AM -33.8204 152.1594 48° Northeast 460 529 24,700 1,680 Climbing FlightAware ADS-B (YRPA)
05:44AM -33.7718 152.2238 48° Northeast 463 533 25,700 1,560 Climbing Aus ATC (RADAR)
05:44AM -33.7581 152.2414 48° Northeast 478 550 25,800 1,620 Climbing FlightAware ADS-B (YRPA)
05:44AM -33.7322 152.2753 47° Northeast 482 555 26,200 1,380 Climbing FlightAware ADS-B (YPLB)
05:45AM -33.6931 152.3267 48° Northeast 482 555 26,800 1,320 Climbing FlightAware ADS-B (YRPA)
05:45AM -33.6316 152.4074 48° Northeast 488 562 27,900 1,680 Climbing FlightAware ADS-B (YRPA)
05:46AM -33.5813 152.4733 48° Northeast 488 562 28,900 1,380 Climbing Aus ATC (RADAR)
05:46AM -33.5703 152.4872 48° Northeast 500 575 28,800 960 Descending FlightAware ADS-B (YRPA)
05:47AM -33.5048 152.5723 47° Northeast 503 579 29,700 1,260 Climbing FlightAware ADS-B (YRPA)
05:47AM -33.4431 152.6523 47° Northeast 504 580 30,500 1,440 Climbing FlightAware ADS-B (YRPA)
05:48AM -33.3770 152.7379 47° Northeast 501 577 31,700 1,680 Climbing FlightAware ADS-B (YRPA)
05:49AM -33.3138 152.8195 47° Northeast 502 578 32,800 1,500 Climbing FlightAware ADS-B (YRPA)
05:49AM -33.2489 152.9032 47° Northeast 500 575 33,800 1,440 Climbing FlightAware ADS-B (YRPA)
05:50AM -33.1845 152.9859 47° Northeast 494 568 34,800 1,500 Climbing FlightAware ADS-B (YRPA)
05:51AM -33.1100 153.0815 47° Northeast 490 564 35,900 1,200 Climbing FlightAware ADS-B (YPLB)
05:51AM -33.0578 153.1483 47° Northeast 485 558 36,500 900 Climbing FlightAware ADS-B (YRPA)
05:52AM -33.0043 153.2176 47° Northeast 491 565 37,100 720 Climbing Aus ATC (RADAR)
05:52AM -32.9848 153.2415 47° Northeast 492 566 37,000 120 Descending FlightAware ADS-B (YPLB)
05:53AM -32.9468 153.2903 47° Northeast 482 555 37,200  Climbing Aus ATC (RADAR)
05:53AM -32.9209 153.3230 47° Northeast 495 570 37,000 -240 Descending FlightAware ADS-B (YPLB)
05:53AM -32.8666 153.3920 47° Northeast 494 568 37,000  Level FlightAware ADS-B (YRPA)
05:54AM -32.8173 153.4542 47° Northeast 497 572 37,000  Level FlightAware ADS-B (YRPA)
05:54AM -32.7637 153.5222 47° Northeast 497 572 37,000  Level FlightAware ADS-B (YPLB)
05:55AM -32.7085 153.5917 47° Northeast 500 575 37,000  Level FlightAware ADS-B (YRPA)
05:56AM -32.6402 153.6777 47° Northeast 500 575 37,000  Level FlightAware ADS-B (YRPA)
05:56AM -32.5868 153.7450 47° Northeast 500 575 37,000  Level FlightAware ADS-B (YRPA)
05:57AM -32.5335 153.8123 47° Northeast 500 575 37,000  Level FlightAware ADS-B (YRPA)
05:58AM -32.4639 153.8997 47° Northeast 501 577 37,000  Level FlightAware ADS-B (YPLB)
05:58AM -32.4148 153.9608 46° Northeast 501 577 37,000 120 Level FlightAware ADS-B (YPLB)
05:59AM -32.3549 154.0360 46° Northeast 488 562 37,200  Climbing Aus ATC (RADAR)
05:59AM -32.3184 154.0808 47° Northeast 502 578 37,000  Descending FlightAware ADS-B (YPLB)
05:59AM -32.3253 154.0730 47° Northeast 502 578 37,200  Climbing Aus ATC (RADAR)
06:00AM -32.2672 154.1447 47° Northeast 503 579 37,000  Descending FlightAware ADS-B (YPLB)
06:00AM -32.2695 154.1428 47° Northeast 502 578 37,200  Climbing Aus ATC (RADAR)
06:00AM -32.1924 154.2381 47° Northeast 504 580 37,000 -180 Descending FlightAware ADS-B (YPLB)
06:01AM -32.1277 154.3186 47° Northeast 505 581 37,000  Level FlightAware ADS-B (YPLB)
06:02AM -32.0642 154.3971 46° Northeast 506 582 37,000 120 Level FlightAware ADS-B (YPLB)
06:02AM -32.0205 154.4517 46° Northeast 506 582 37,200  Climbing Aus ATC (RADAR)
06:03AM -31.9652 154.5188 46° Northeast 509 586 37,000 -240 Descending FlightAware ADS-B (YPLB)
06:03AM -31.9121 154.5841 46° Northeast 510 587 37,000 120 Level FlightAware ADS-B (YPLB)
06:04AM -31.8628 154.6443 46° Northeast 495 570 37,200  Climbing Aus ATC (RADAR)
06:04AM -31.8333 154.6806 46° Northeast 513 590 37,000 -300 Descending FlightAware ADS-B (YPLB)
06:05AM -31.7767 154.7499 46° Northeast 514 592 37,000  Level FlightAware ADS-B (YPLB)
06:05AM -31.7027 154.8403 46° Northeast 514 592 37,000  Level FlightAware ADS-B (YPLB)
06:06AM -31.6437 154.9120 46° Northeast 510 587 37,000  Level FlightAware ADS-B (YPLB)
06:07AM -31.5985 154.9668 46° Northeast 507 583 37,000  Level FlightAware ADS-B (YPLB)
06:07AM -31.5047 155.0807 46° Northeast 507 583 37,000 120 Level FlightAware ADS-B (YPLB)
06:08AM -31.4550 155.1417 46° Northeast 490 564 37,200  Climbing Aus ATC (RADAR)
06:08AM -31.4408 155.1585 46° Northeast 507 583 37,000 -360 Descending FlightAware ADS-B (YPLB)
06:09AM -31.4031 155.2042 46° Northeast 506 582 37,000 120 Level FlightAware ADS-B (YPLB)
06:09AM -31.3245 155.2989 46° Northeast 490 564 37,200 120 Climbing Aus ATC (RADAR)
06:10AM -31.2672 155.3673 46° Northeast 489 563 37,200  Level Aus ATC (RADAR)
06:11AM -31.1871 155.4640 46° Northeast 484 557 37,200  Level Aus ATC (RADAR)
06:11AM -31.1301 155.5324 46° Northeast 486 559 37,200  Level Aus ATC (RADAR)
06:12AM -31.0487 155.6302 46° Northeast 486 559 37,200  Level Aus ATC (RADAR)
06:13AM -31.0076 155.6789 45° Northeast 487 560 37,200  Level Aus ATC (RADAR)
06:13AM -30.9493 155.7473 45° Northeast 490 564 37,200  Level Aus ATC (RADAR)
06:14AM -30.8544 155.8611 46° Northeast 507 583 37,200  Level Aus ATC (RADAR)
06:14AM -30.8282 155.8935 47° Northeast 485 558 37,200 -240 Level Aus ATC (RADAR)
06:15AM -30.7724 155.9657 48° Northeast 497 572 37,000  Descending Aus ATC (RADAR)
06:16AM -30.6958 156.0677 49° Northeast 515 593 37,200 120 Climbing Aus ATC (RADAR)
06:16AM -30.6402 156.1409 49° Northeast 516 594 37,200  Level Aus ATC (RADAR)
06:17AM -30.5609 156.2454 49° Northeast 517 595 37,200  Level Aus ATC (RADAR)
06:18AM -30.5371 156.2768 49° Northeast 517 595 37,200  Level Aus ATC (RADAR)
06:18AM -30.4745 156.3598 49° Northeast 513 590 37,200 -60 Level Aus ATC (RADAR)
06:19AM -30.3657 156.5026 49° Northeast 507 583 37,100 -120 Descending Aus ATC (RADAR)
06:20AM -30.3423 156.5332 49° Northeast 506 582 37,100  Level Aus ATC (RADAR)
06:20AM -30.2877 156.6045 48° Northeast 506 582 37,100  Level Aus ATC (RADAR)
06:21AM -30.2096 156.7061 48° Northeast 506 582 37,100  Level Aus ATC (RADAR)
06:22AM -30.1551 156.7770 48° Northeast 505 581 37,100  Level Aus ATC (RADAR)
06:22AM -30.0769 156.8780 48° Northeast 505 581 37,100  Level Aus ATC (RADAR)
06:23AM -30.0379 156.9287 48° Northeast 505 581 37,100  Level Aus ATC (RADAR)
06:23AM -29.9836 156.9991 48° Northeast 503 579 37,100  Level Aus ATC (RADAR)
06:24AM -29.9057 157.0993 48° Northeast 503 579 37,100  Level Aus ATC (RADAR)
06:25AM -29.8592 157.1594 48° Northeast 502 578 37,100  Level Aus ATC (RADAR)
06:25AM -29.8039 157.2300 48° Northeast 502 578 37,100  Level Aus ATC (RADAR)
06:26AM -29.7416 157.3098 48° Northeast 503 579 37,100  Level Aus ATC (RADAR)
06:27AM -29.6869 157.3799 48° Northeast 502 578 37,100  Level Aus ATC (RADAR)
06:27AM -29.6090 157.4796 48° Northeast 502 578 37,100  Level Aus ATC (RADAR)
06:28AM -29.5699 157.5299 48° Northeast 501 577 37,100  Level Aus ATC (RADAR)
06:28AM -29.5148 157.6001 48° Northeast 504 580 37,100  Level Aus ATC (RADAR)
06:29AM -29.4202 157.7202 48° Northeast 504 580 37,100  Level Aus ATC (RADAR)
06:30AM -29.3801 157.7707 48° Northeast 507 583 37,100  Level Aus ATC (RADAR)
06:30AM -29.3246 157.8407 48° Northeast 508 585 37,100  Level Aus ATC (RADAR)
06:31AM -29.2608 157.9210 48° Northeast 508 585 37,100  Level Aus ATC (RADAR)
06:32AM -29.1974 158.0005 48° Northeast 508 585 37,100  Level Aus ATC (RADAR)
06:33AM -29.1238 158.0917 47° Northeast 510 587 37,100  Level Aus ATC (RADAR)
06:33AM -29.0755 158.1513 47° Northeast 511 588 37,100  Level Aus ATC (RADAR)
06:33AM -29.0342 158.2008 46° Northeast 512 589 37,100  Level Aus ATC (RADAR)
06:38AM -28.5963 158.7487 48° Northeast 37,000 -60 Descending Aus ATC (Calculated)
06:38AM -28.5536 158.8018 47° Northeast 37,000  Level Aus ATC (Calculated)
06:40AM -28.4636 158.9133 47° Northeast  Level FlightAware Approximate
06:41AM -28.3805 159.0162 47° Northeast  Level FlightAware Approximate
06:42AM -28.2973 159.1188 47° Northeast  Level FlightAware Approximate
06:42AM -28.2241 159.2067 226° Southwest 37,000  Level Aus ATC (Calculated)
06:44AM -28.3687 159.0388 226° Southwest  Level FlightAware Approximate
06:45AM -28.2828 159.1386 46° Northeast  Level FlightAware Approximate
06:46AM -28.1969 159.2383 46° Northeast  Level FlightAware Approximate
06:46AM -27.8744 159.6322 227° Southwest 37,000  Level Aus ATC (Calculated)
06:47AM -28.2828 159.1386 226° Southwest  Level FlightAware Approximate
06:47AM -27.7852 159.7401 40° Northeast 37,000  Level Aus ATC (Calculated)
06:49AM -27.6185 159.8971 47° Northeast  Level Estimated
06:49AM -27.5715 159.9973 47° Northeast 37,000  Level Aus ATC (Calculated)
06:50AM -27.4915 160.0931 47° Northeast 37,000  Level Aus ATC (Calculated)
06:51AM -27.4145 160.1852 47° Northeast 37,000  Level Aus ATC (Calculated)
06:51AM -27.3393 160.2749 47° Northeast 37,000  Level Aus ATC (Calculated)
06:52AM -27.3029 160.3184 47° Northeast 37,000  Level Aus ATC (Calculated)
06:54AM -27.1444 160.5067 47° Northeast  Level FlightAware Approximate
06:55AM -27.0593 160.6074 47° Northeast  Level FlightAware Approximate
06:55AM -27.0513 160.6169 46° Northeast 37,000  Level Aus ATC (Calculated)
06:56AM -26.9230 160.7683 46° Northeast 37,000  Level Aus ATC (Calculated)
06:57AM -26.8924 160.8044 46° Northeast  Level FlightAware Approximate
06:58AM -26.8250 160.8836 46° Northeast  Level FlightAware Approximate
06:58AM -26.7424 160.9807 46° Northeast 37,000  Level Aus ATC (Calculated)
06:59AM -26.7397 160.9837 46° Northeast  Level FlightAware Approximate
07:00AM -26.6442 161.0956 46° Northeast  Level FlightAware Approximate
07:00AM -26.6330 161.1087 46° Northeast 37,000  Level Aus ATC (Calculated)
07:01AM -26.5476 161.2084 46° Northeast  Level FlightAware Approximate
07:02AM -26.4621 161.3080 46° Northeast  Level FlightAware Approximate
07:02AM -26.4278 161.3480 46° Northeast 37,000  Level Aus ATC (Calculated)
07:03AM -26.3422 161.4474 46° Northeast  Level FlightAware Approximate
07:04AM -26.2565 161.5466 46° Northeast  Level FlightAware Approximate
07:05AM -26.1707 161.6458 46° Northeast  Level FlightAware Approximate
07:06AM -26.0849 161.7448 46° Northeast  Level FlightAware Approximate
07:07AM -25.9991 161.8436 46° Northeast  Level FlightAware Approximate
07:08AM -25.9131 161.9423 46° Northeast  Level FlightAware Approximate
07:09AM -25.8271 162.0408 46° Northeast  Level FlightAware Approximate
07:10AM -25.7410 162.1392 46° Northeast  Level FlightAware Approximate
07:11AM -25.6549 162.2375 46° Northeast  Level FlightAware Approximate
07:12AM -25.5686 162.3356 46° Northeast  Level FlightAware Approximate
07:12AM -25.5250 162.3851 46° Northeast 37,000  Level Aus ATC (Calculated)
07:13AM -25.4387 162.4830 46° Northeast  Level FlightAware Approximate
07:14AM -25.3524 162.5808 46° Northeast  Level FlightAware Approximate
07:15AM -25.2659 162.6784 46° Northeast  Level FlightAware Approximate
07:16AM -25.1794 162.7759 46° Northeast  Level FlightAware Approximate
07:17AM -25.0928 162.8732 46° Northeast  Level FlightAware Approximate
07:18AM -25.0062 162.9705 45° Northeast  Level FlightAware Approximate
07:19AM -24.9195 163.0675 45° Northeast  Level FlightAware Approximate
07:20AM -25.0062 162.9705 225° Southwest  Level FlightAware Approximate
07:21AM -24.9195 163.0675 45° Northeast  Level FlightAware Approximate
07:22AM -25.0062 162.9705 225° Southwest  Level FlightAware Approximate
07:23AM -24.9195 163.0675 45° Northeast  Level FlightAware Approximate
07:24AM -25.0062 162.9705 225° Southwest  Level FlightAware Approximate
07:25AM -24.9195 163.0675 45° Northeast  Level FlightAware Approximate
07:26AM -25.0062 162.9705 225° Southwest  Level FlightAware Approximate
07:27AM -24.9195 163.0675 45° Northeast  Level FlightAware Approximate
07:28AM -25.0062 162.9705 225° Southwest  Level FlightAware Approximate
07:29AM -24.9195 163.0675 45° Northeast  Level FlightAware Approximate
07:30AM -25.0062 162.9705 225° Southwest  Level FlightAware Approximate
07:31AM -24.9054 163.0492 45° Northeast  Level Estimated
07:32AM -24.8195 163.1470 46° Northeast  Level FlightAware Approximate
07:33AM -24.7335 163.2447 46° Northeast  Level FlightAware Approximate
07:34AM -24.6474 163.3422 46° Northeast  Level FlightAware Approximate
07:35AM -24.5613 163.4396 46° Northeast  Level FlightAware Approximate
07:36AM -24.4751 163.5369 46° Northeast  Level FlightAware Approximate
07:37AM -24.3889 163.6340 46° Northeast  Level FlightAware Approximate
07:38AM -24.3026 163.7311 46° Northeast  Level FlightAware Approximate
07:39AM -24.2162 163.8279 46° Northeast  Level FlightAware Approximate
07:40AM -24.1298 163.9247 46° Northeast  Level FlightAware Approximate
07:41AM -24.0433 164.0213 46° Northeast  Level FlightAware Approximate
07:42AM -23.9567 164.1178 46° Northeast  Level FlightAware Approximate
07:43AM -23.8701 164.2142 46° Northeast  Level FlightAware Approximate
07:44AM -23.7834 164.3104 45° Northeast  Level FlightAware Approximate
07:45AM -23.6967 164.4065 45° Northeast  Level FlightAware Approximate
07:46AM -23.6099 164.5025 45° Northeast  Level FlightAware Approximate
07:47AM -23.5231 164.5983 45° Northeast  Level FlightAware Approximate
07:48AM -23.4178 164.6688 45° Northeast  Level Estimated
07:49AM -23.3312 164.7648 46° Northeast  Level FlightAware Approximate
07:50AM -23.2446 164.8606 45° Northeast  Level FlightAware Approximate
07:51AM -23.1579 164.9563 45° Northeast  Level FlightAware Approximate
07:52AM -23.0711 165.0520 45° Northeast  Level FlightAware Approximate
07:53AM -22.9843 165.1474 45° Northeast  Level FlightAware Approximate
07:54AM -22.8974 165.2428 45° Northeast  Level FlightAware Approximate
07:55AM -22.8105 165.3380 45° Northeast  Level FlightAware Approximate
07:56AM -22.7235 165.4332 45° Northeast  Level FlightAware Approximate
07:57AM -22.6364 165.5282 45° Northeast  Level FlightAware Approximate
07:58AM -22.5493 165.6230 45° Northeast  Level FlightAware Approximate
07:59AM -22.4622 165.7178 45° Northeast  Level FlightAware Approximate
08:00AM -22.3749 165.8124 45° Northeast  Level FlightAware Approximate
08:01AM -22.2877 165.9070 45° Northeast  Level FlightAware Approximate
08:02AM -22.2003 166.0014 45° Northeast  Level FlightAware Approximate
08:03AM -22.1130 166.0957 45° Northeast  Level FlightAware Approximate
08:04AM -22.0255 166.1898 45° Northeast  Level FlightAware Approximate
08:05AM -21.9138 166.2466 24° Northeast  Level Estimated
08:06AM -21.8010 166.3010 24° Northeast  Level FlightAware Approximate
08:07AM -21.6883 166.3554 24° Northeast  Level FlightAware Approximate
08:08AM -21.5756 166.4097 24° Northeast  Level FlightAware Approximate
08:09AM -21.4628 166.4639 24° Northeast  Level FlightAware Approximate
08:10AM -21.3500 166.5180 24° Northeast  Level FlightAware Approximate
08:11AM -21.2372 166.5721 24° Northeast  Level FlightAware Approximate
08:12AM -21.1244 166.6261 24° Northeast  Level FlightAware Approximate
08:13AM -21.0115 166.6799 24° Northeast  Level FlightAware Approximate
08:14AM -20.8987 166.7337 24° Northeast  Level FlightAware Approximate
08:15AM -20.7858 166.7874 24° Northeast  Level FlightAware Approximate
08:16AM -20.6729 166.8411 24° Northeast  Level FlightAware Approximate
08:17AM -20.5600 166.8947 24° Northeast  Level FlightAware Approximate
08:18AM -20.4471 166.9481 24° Northeast  Level FlightAware Approximate
08:19AM -20.3342 167.0015 24° Northeast  Level FlightAware Approximate
08:20AM -20.2212 167.0549 24° Northeast  Level FlightAware Approximate
08:21AM -20.1082 167.1081 24° Northeast  Level FlightAware Approximate
08:22AM -19.9953 167.1613 24° Northeast  Level FlightAware Approximate
08:23AM -19.8822 167.2144 24° Northeast  Level FlightAware Approximate
08:24AM -19.7692 167.2674 24° Northeast  Level FlightAware Approximate
08:25AM -19.6562 167.3203 24° Northeast  Level FlightAware Approximate
08:26AM -19.5431 167.3732 24° Northeast  Level FlightAware Approximate
08:27AM -19.4322 167.4308 24° Northeast  Level Estimated
08:28AM -19.3189 167.4829 23° Northeast  Level FlightAware Approximate
08:29AM -19.2055 167.5349 23° Northeast  Level FlightAware Approximate
08:30AM -19.0922 167.5869 23° Northeast  Level FlightAware Approximate
08:31AM -18.9788 167.6388 23° Northeast  Level FlightAware Approximate
08:32AM -18.8654 167.6906 23° Northeast  Level FlightAware Approximate
08:33AM -18.7520 167.7424 23° Northeast  Level FlightAware Approximate
08:34AM -18.6386 167.7941 23° Northeast  Level FlightAware Approximate
08:35AM -18.5296 167.8554 24° Northeast  Level Estimated
08:36AM -18.4160 167.9065 23° Northeast  Level FlightAware Approximate
08:37AM -18.3023 167.9576 23° Northeast  Level FlightAware Approximate
08:38AM -18.1887 168.0086 23° Northeast  Level FlightAware Approximate
08:39AM -18.0751 168.0595 23° Northeast  Level FlightAware Approximate
08:40AM -17.9614 168.1104 23° Northeast  Level FlightAware Approximate
08:41AM -17.8477 168.1612 23° Northeast  Level FlightAware Approximate
08:42AM -17.7340 168.2119 23° Northeast  Level FlightAware Approximate
08:43AM -17.6621 168.2439 24° Northeast  Level FlightAware Approximate
08:44AM -17.6993 168.3198 24° Northeast  Level Estimated
08:45AM -17.6993 168.3198 24° Northeast  Level Estimated
08:46AM -17.6993 168.3198 24° Northeast  Level Estimated
08:47AM -17.6993 168.3198 24° Northeast  Level Estimated
08:48AM -17.6993 168.3198 24° Northeast  Level Estimated
08:49AM -17.6993 168.3198 24° Northeast  Level Estimated